Terminal Aerodrome Forecast
Issued by NWS Hastings, NE

Home | Current Version | Previous Version | Text Only | Print | Product List | Glossary On
Versions: 1 2 3 4 5 6 7 8 9 10 11 12 13 14 15 16 17 18 19 20 21 22 23 24 25 26 27
000
FTUS43 KGID 282339
TAFGRI
TAF
KGRI 282339Z 2900/2924 17012KT P6SM BKN050
     FM290400 17010KT P6SM VCTS BKN050CB
     FM291100 32011KT P6SM BKN250
     FM291600 34016KT P6SM OVC050
     FM291900 35018G25KT P6SM VCTS OVC050CB=

USA.gov is the U.S. government's official web portal to all federal, state and local government web resources and services.